createdAt,value
2018-06-09T00:00:22.292Z,67.95
2018-06-09T00:01:21.868Z,68.05
2018-06-09T00:02:21.865Z,68.12
2018-06-09T00:03:22.239Z,68.34
2018-06-09T00:04:22.174Z,67.92
2018-06-09T00:05:22.259Z,68.24
2018-06-09T00:06:22.246Z,68.21
2018-06-09T00:07:22.069Z,68.21
2018-06-09T00:08:22.108Z,67.72
2018-06-09T00:09:22.138Z,67.95
2018-06-09T00:10:22.174Z,67.85
2018-06-09T00:11:22.206Z,67.76
2018-06-09T00:13:23.236Z,67.95
2018-06-09T00:14:22.515Z,67.76
2018-06-09T00:15:22.973Z,67.66
2018-06-09T00:16:22.342Z,67.76
2018-06-09T00:17:22.412Z,67.47
2018-06-09T00:18:22.498Z,67.37
2018-06-09T00:19:22.476Z,67.57
2018-06-09T00:20:22.712Z,67.37
2018-06-09T00:23:22.621Z,67.57
2018-06-09T00:25:22.678Z,67.47
2018-06-09T00:26:23.428Z,67.57
2018-06-09T00:28:22.799Z,67.37
2018-06-09T00:29:23.271Z,67.57
2018-06-09T00:30:23.761Z,67.27
2018-06-09T00:31:22.829Z,67.57
2018-06-09T00:32:23.583Z,67.47
2018-06-09T00:33:23.254Z,67.47
2018-06-09T00:34:22.934Z,67.47
2018-06-09T00:35:23.214Z,67.47
2018-06-09T00:36:23.061Z,67.47
2018-06-09T00:37:23.302Z,67.47
2018-06-09T00:38:23.366Z,67.57
2018-06-09T00:39:23.153Z,67.57
2018-06-09T00:41:23.518Z,67.63
2018-06-09T00:42:23.255Z,67.95
2018-06-09T00:43:23.284Z,67.95
2018-06-09T00:45:23.655Z,68.34
2018-06-09T00:46:23.589Z,68.02
2018-06-09T00:47:23.428Z,68.30
2018-06-09T00:48:23.655Z,67.92
2018-06-09T00:49:23.487Z,67.92
2018-06-09T00:50:23.725Z,68.40
2018-06-09T00:51:23.812Z,68.21
2018-06-09T00:52:23.787Z,68.40
2018-06-09T00:53:23.576Z,68.89
2018-06-09T00:54:23.666Z,68.79
2018-06-09T00:55:23.890Z,68.70
2018-06-09T00:56:24.042Z,68.70
2018-06-09T00:58:24.040Z,68.89
2018-06-09T01:00:24.180Z,68.50
2018-06-09T01:01:24.148Z,68.89
2018-06-09T01:02:23.922Z,68.99
2018-06-09T01:03:24.262Z,68.70
2018-06-09T01:04:24.242Z,68.79
2018-06-09T01:07:24.088Z,68.99
2018-06-09T01:08:24.128Z,68.99
2018-06-09T01:09:24.159Z,69.08
2018-06-09T01:10:24.445Z,69.08
2018-06-09T01:11:24.223Z,68.99
2018-06-09T01:12:24.466Z,68.99
2018-06-09T01:13:24.595Z,69.18
2018-06-09T01:14:24.326Z,68.79
2018-06-09T01:16:24.649Z,68.50
2018-06-09T01:17:24.780Z,68.89
2018-06-09T01:19:24.449Z,68.60
2018-06-09T01:20:24.528Z,68.60
2018-06-09T01:21:24.976Z,68.40
2018-06-09T01:22:24.850Z,68.50
2018-06-09T01:23:24.579Z,68.66
2018-06-09T01:24:24.612Z,68.50
2018-06-09T01:25:24.645Z,68.60
2018-06-09T01:26:24.883Z,68.40
2018-06-09T01:27:24.959Z,68.37
2018-06-09T01:28:25.150Z,68.50
2018-06-09T01:30:24.904Z,68.60
2018-06-09T01:32:24.979Z,68.70
2018-06-09T01:33:24.966Z,68.50
2018-06-09T01:34:25.617Z,68.60
2018-06-09T01:35:24.989Z,68.50
2018-06-09T01:36:25.073Z,68.60
2018-06-09T01:37:25.328Z,68.40
2018-06-09T01:39:25.381Z,68.66
2018-06-09T01:40:25.264Z,69.15
2018-06-09T01:41:25.565Z,69.08
2018-06-09T01:43:25.245Z,68.40
2018-06-09T01:45:25.360Z,68.21
2018-06-09T01:46:25.771Z,67.92
2018-06-09T01:49:25.805Z,67.63
2018-06-09T01:51:25.564Z,67.34
2018-06-09T01:52:25.585Z,67.47
2018-06-09T01:53:25.831Z,67.47
2018-06-09T01:54:25.818Z,67.18
2018-06-09T01:55:25.672Z,66.99
2018-06-09T01:56:26.134Z,67.18
2018-06-09T01:57:25.815Z,67.37
2018-06-09T01:58:26.002Z,67.08
2018-06-09T02:00:26.180Z,66.69
2018-06-09T02:01:26.105Z,66.99
2018-06-09T02:02:26.090Z,66.30
2018-06-09T02:03:26.233Z,66.50
2018-06-09T02:04:25.999Z,66.50
2018-06-09T02:06:26.018Z,66.40
2018-06-09T02:07:26.102Z,66.69
2018-06-09T02:08:26.291Z,66.40
2018-06-09T02:09:26.172Z,65.82
2018-06-09T02:11:26.543Z,65.92
2018-06-09T02:12:26.272Z,65.92
2018-06-09T02:13:26.506Z,65.92
2018-06-09T02:14:26.339Z,66.11
2018-06-09T02:15:26.571Z,66.02
2018-06-09T02:16:26.404Z,66.02
2018-06-09T02:17:26.744Z,66.34
2018-06-09T02:18:26.922Z,65.72
2018-06-09T02:19:26.504Z,66.02
2018-06-09T02:20:26.501Z,65.82
2018-06-09T02:21:26.576Z,65.92
2018-06-09T02:22:26.569Z,65.53
2018-06-09T02:23:26.645Z,65.43
2018-06-09T02:24:26.626Z,65.56
2018-06-09T02:27:26.983Z,65.72
2018-06-09T02:28:26.767Z,65.63
2018-06-09T02:29:26.801Z,65.37
2018-06-09T02:30:27.099Z,65.66
2018-06-09T02:31:26.914Z,65.53
2018-06-09T02:32:27.200Z,65.53
2018-06-09T02:33:27.233Z,65.53
2018-06-09T02:34:27.013Z,65.92
2018-06-09T02:35:27.249Z,65.56
2018-06-09T02:36:27.312Z,65.53
2018-06-09T02:37:27.315Z,65.53
2018-06-09T02:38:27.350Z,65.72
2018-06-09T02:39:27.432Z,65.43
2018-06-09T02:40:27.170Z,65.24
2018-06-09T02:41:27.256Z,65.24
2018-06-09T02:42:27.324Z,65.27
2018-06-09T02:43:27.341Z,65.95
2018-06-09T02:44:27.378Z,65.63
2018-06-09T02:45:27.490Z,64.95
2018-06-09T02:46:27.882Z,64.85
2018-06-09T02:47:27.478Z,64.88
2018-06-09T02:48:27.891Z,65.63
2018-06-09T02:49:27.528Z,64.98
2018-06-09T02:50:27.563Z,64.95
2018-06-09T02:52:27.944Z,65.66
2018-06-09T02:53:27.668Z,65.63
2018-06-09T02:54:27.742Z,65.14
2018-06-09T02:55:27.724Z,65.53
2018-06-09T02:56:27.968Z,65.43
2018-06-09T02:57:27.944Z,65.43
2018-06-09T02:59:28.315Z,65.14
2018-06-09T03:01:28.130Z,65.14
2018-06-09T03:02:28.164Z,65.14
2018-06-09T03:03:27.999Z,65.24
2018-06-09T03:04:28.234Z,65.05
2018-06-09T03:05:28.326Z,65.37
2018-06-09T03:06:28.047Z,65.14
2018-06-09T03:07:28.147Z,65.37
2018-06-09T03:08:28.169Z,65.34
2018-06-09T03:09:28.198Z,65.14
2018-06-09T03:10:28.231Z,65.17
2018-06-09T03:11:28.568Z,65.14
2018-06-09T03:12:28.300Z,65.37
2018-06-09T03:13:28.348Z,65.14
2018-06-09T03:14:28.573Z,65.53
2018-06-09T03:15:28.357Z,65.43
2018-06-09T03:16:28.389Z,65.43
2018-06-09T03:17:28.728Z,65.56
2018-06-09T03:19:28.540Z,65.43
2018-06-09T03:20:28.571Z,65.37
2018-06-09T03:21:28.609Z,65.63
2018-06-09T03:22:29.377Z,65.43
2018-06-09T03:24:29.007Z,65.34
2018-06-09T03:26:28.789Z,65.53
2018-06-09T03:27:28.806Z,65.43
2018-06-09T03:28:28.801Z,65.53
2018-06-09T03:29:28.877Z,65.14
2018-06-09T03:30:29.382Z,65.17
2018-06-09T03:31:29.147Z,65.14
2018-06-09T03:32:29.000Z,65.14
2018-06-09T03:33:29.029Z,65.37
2018-06-09T03:34:29.047Z,65.53
2018-06-09T03:35:29.075Z,65.34
2018-06-09T03:36:29.317Z,65.53
2018-06-09T03:37:29.099Z,65.53
2018-06-09T03:38:29.177Z,65.14
2018-06-09T03:39:29.368Z,65.43
2018-06-09T03:40:29.288Z,65.72
2018-06-09T03:42:29.815Z,65.05
2018-06-09T03:43:29.548Z,65.24
2018-06-09T03:44:29.689Z,65.14
2018-06-09T03:46:29.402Z,65.14
2018-06-09T03:47:29.481Z,65.14
2018-06-09T03:48:30.023Z,65.43
2018-06-09T03:49:30.359Z,65.14
2018-06-09T03:50:29.613Z,65.05
2018-06-09T03:51:29.828Z,65.34
2018-06-09T03:52:29.604Z,65.34
2018-06-09T03:53:29.712Z,65.27
2018-06-09T03:54:29.979Z,65.47
2018-06-09T03:55:29.974Z,65.47
2018-06-09T03:56:29.804Z,65.08
2018-06-09T03:57:29.819Z,65.53
2018-06-09T03:58:30.014Z,65.27
2018-06-09T03:59:29.913Z,65.37
2018-06-09T04:00:30.507Z,65.17
2018-06-09T04:01:29.961Z,65.43
2018-06-09T04:02:30.306Z,65.43
2018-06-09T04:03:30.344Z,65.47
2018-06-09T04:04:30.090Z,65.56
2018-06-09T04:06:30.382Z,65.05
2018-06-09T04:07:30.170Z,65.47
2018-06-09T04:08:30.211Z,65.17
2018-06-09T04:09:30.531Z,65.37
2018-06-09T04:10:30.315Z,65.14
2018-06-09T04:11:30.305Z,65.27
2018-06-09T04:12:31.105Z,65.53
2018-06-09T04:13:30.364Z,65.34
2018-06-09T04:14:30.703Z,65.37
2018-06-09T04:15:30.632Z,65.17
2018-06-09T04:16:30.465Z,65.27
2018-06-09T04:17:30.458Z,65.24
2018-06-09T04:18:30.789Z,65.66
2018-06-09T04:19:30.770Z,65.24
2018-06-09T04:20:30.853Z,65.17
2018-06-09T04:22:31.022Z,65.17
2018-06-09T04:23:30.700Z,65.17
2018-06-09T04:24:30.736Z,65.37
2018-06-09T04:25:31.019Z,65.17
2018-06-09T04:26:30.755Z,65.17
2018-06-09T04:27:30.836Z,65.56
2018-06-09T04:28:30.869Z,65.37
2018-06-09T04:29:31.108Z,65.47
2018-06-09T04:30:30.894Z,65.27
2018-06-09T04:31:30.973Z,65.47
2018-06-09T04:32:31.210Z,64.98
2018-06-09T04:33:31.294Z,65.17
2018-06-09T04:35:31.312Z,65.47
2018-06-09T04:36:31.142Z,65.08
2018-06-09T04:37:31.189Z,64.98
2018-06-09T04:38:31.162Z,65.47
2018-06-09T04:39:31.847Z,65.66
2018-06-09T04:40:31.281Z,65.56
2018-06-09T04:42:31.556Z,65.56
2018-06-09T04:43:31.380Z,64.88
2018-06-09T04:44:31.370Z,64.69
2018-06-09T04:45:31.451Z,64.88
2018-06-09T04:46:31.737Z,64.98
2018-06-09T04:47:31.515Z,64.98
2018-06-09T04:49:31.584Z,64.69
2018-06-09T04:50:31.619Z,64.69
2018-06-09T04:54:31.999Z,64.69
2018-06-09T04:55:31.790Z,64.78
2018-06-09T04:56:32.124Z,64.88
2018-06-09T04:57:31.852Z,64.69
2018-06-09T04:58:32.089Z,64.50
2018-06-09T04:59:32.135Z,64.59
2018-06-09T05:00:31.958Z,64.59
2018-06-09T05:01:32.297Z,64.69
2018-06-09T05:02:32.021Z,64.59
2018-06-09T05:04:32.297Z,64.78
2018-06-09T05:05:32.076Z,64.59
2018-06-09T05:06:32.159Z,64.69
2018-06-09T05:07:32.245Z,64.69
2018-06-09T05:08:33.035Z,63.91
2018-06-09T05:09:32.264Z,64.11
2018-06-09T05:10:32.807Z,64.11
2018-06-09T05:12:32.385Z,64.11
2018-06-09T05:13:32.407Z,64.11
2018-06-09T05:14:32.391Z,64.30
2018-06-09T05:15:32.970Z,64.11
2018-06-09T05:16:32.456Z,64.40
2018-06-09T05:17:32.689Z,64.40
2018-06-09T05:18:32.567Z,64.11
2018-06-09T05:19:32.630Z,64.01
2018-06-09T05:20:32.838Z,64.01
2018-06-09T05:21:32.822Z,64.20
2018-06-09T05:22:32.953Z,64.20
2018-06-09T05:23:32.946Z,64.40
2018-06-09T05:25:33.013Z,64.01
2018-06-09T05:26:32.791Z,64.30
2018-06-09T05:27:32.893Z,64.20
2018-06-09T05:28:33.122Z,64.01
2018-06-09T05:29:33.143Z,64.30
2018-06-09T05:30:33.283Z,64.11
2018-06-09T05:31:33.226Z,63.82
2018-06-09T05:32:33.260Z,63.53
2018-06-09T05:33:33.035Z,63.43
2018-06-09T05:34:33.315Z,63.72
2018-06-09T05:36:33.642Z,63.33
2018-06-09T05:37:33.171Z,63.23
2018-06-09T05:38:33.252Z,63.62
2018-06-09T05:39:33.284Z,63.62
2018-06-09T05:41:33.557Z,63.65
2018-06-09T05:42:33.542Z,63.46
2018-06-09T05:43:33.387Z,63.43
2018-06-09T05:44:33.471Z,63.33
2018-06-09T05:45:33.848Z,63.62
2018-06-09T05:47:34.013Z,63.43
2018-06-09T05:48:33.595Z,63.43
2018-06-09T05:49:33.745Z,63.62
2018-06-09T05:50:34.171Z,63.33
2018-06-09T05:51:33.695Z,64.01
2018-06-09T05:52:33.678Z,63.33
2018-06-09T05:53:34.635Z,63.33
2018-06-09T05:54:34.207Z,63.62
2018-06-09T05:57:33.900Z,63.33
2018-06-09T05:58:34.090Z,63.43
2018-06-09T05:59:34.218Z,63.72
2018-06-09T06:00:34.002Z,63.53
2018-06-09T06:01:34.071Z,63.72
2018-06-09T06:02:34.272Z,63.43
2018-06-09T06:04:34.140Z,63.13
2018-06-09T06:05:34.173Z,63.26
2018-06-09T06:06:34.665Z,63.36
2018-06-09T06:07:34.243Z,63.46
2018-06-09T06:09:34.258Z,63.46
2018-06-09T06:10:34.342Z,62.88
2018-06-09T06:11:34.378Z,62.78
2018-06-09T06:12:34.864Z,62.78
2018-06-09T06:13:34.750Z,62.68
2018-06-09T06:14:34.495Z,62.68
2018-06-09T06:15:34.532Z,63.07
2018-06-09T06:16:34.523Z,62.88
2018-06-09T06:17:34.582Z,62.88
2018-06-09T06:18:35.123Z,62.88
2018-06-09T06:19:34.860Z,62.98
2018-06-09T06:20:34.694Z,62.78
2018-06-09T06:21:34.676Z,63.07
2018-06-09T06:22:34.766Z,62.78
2018-06-09T06:23:34.943Z,62.78
2018-06-09T06:25:35.109Z,62.78
2018-06-09T06:26:35.098Z,62.88
2018-06-09T06:27:35.282Z,62.88
2018-06-09T06:28:34.919Z,62.78
2018-06-09T06:29:35.099Z,62.59
2018-06-09T06:30:35.041Z,62.88
2018-06-09T06:31:35.523Z,62.88
2018-06-09T06:32:35.100Z,62.88
2018-06-09T06:33:35.089Z,62.88
2018-06-09T06:34:35.438Z,62.49
2018-06-09T06:35:35.154Z,62.59
2018-06-09T06:36:35.238Z,62.59
2018-06-09T06:37:35.570Z,62.39
2018-06-09T06:39:36.054Z,62.39
2018-06-09T06:40:35.328Z,62.59
2018-06-09T06:41:35.362Z,62.88
2018-06-09T06:43:36.034Z,62.68
2018-06-09T06:44:35.524Z,62.59
2018-06-09T06:45:35.702Z,62.29
2018-06-09T06:46:36.496Z,62.59
2018-06-09T06:47:35.614Z,62.59
2018-06-09T06:48:35.654Z,62.68
2018-06-09T06:49:35.935Z,62.68
2018-06-09T06:51:35.780Z,62.49
2018-06-09T06:52:36.045Z,62.59
2018-06-09T06:53:35.775Z,62.71
2018-06-09T06:54:36.013Z,62.62
2018-06-09T06:55:36.450Z,62.29
2018-06-09T06:56:35.963Z,62.01
2018-06-09T06:57:35.968Z,62.42
2018-06-09T06:58:36.045Z,62.10
2018-06-09T06:59:36.039Z,61.81
2018-06-09T07:00:36.081Z,62.39
2018-06-09T07:01:36.658Z,62.68
2018-06-09T07:03:36.122Z,62.13
2018-06-09T07:04:36.617Z,62.29
2018-06-09T07:05:36.574Z,61.84
2018-06-09T07:06:36.298Z,61.81
2018-06-09T07:07:36.312Z,62.04
2018-06-09T07:09:36.678Z,62.04
2018-06-09T07:11:36.463Z,62.59
2018-06-09T07:12:36.802Z,62.10
2018-06-09T07:13:36.822Z,62.10
2018-06-09T07:14:36.753Z,61.81
2018-06-09T07:15:36.810Z,62.10
2018-06-09T07:16:36.929Z,62.19
2018-06-09T07:17:36.653Z,62.13
2018-06-09T07:18:36.845Z,62.13
2018-06-09T07:19:36.932Z,62.10
2018-06-09T07:20:37.065Z,61.91
2018-06-09T07:21:37.002Z,62.23
2018-06-09T07:24:37.149Z,61.94
2018-06-09T07:25:36.886Z,62.04
2018-06-09T07:26:37.177Z,61.84
2018-06-09T07:27:37.307Z,61.94
2018-06-09T07:29:37.069Z,61.74
2018-06-09T07:30:37.113Z,61.84
2018-06-09T07:31:37.395Z,61.35
2018-06-09T07:33:37.271Z,61.07
2018-06-09T07:34:37.401Z,61.74
2018-06-09T07:35:37.937Z,61.16
2018-06-09T07:38:38.242Z,61.35
2018-06-09T07:39:37.375Z,61.25
2018-06-09T07:40:37.508Z,61.25
2018-06-09T07:42:37.559Z,61.35
2018-06-09T07:43:37.508Z,61.25
2018-06-09T07:44:37.594Z,61.25
2018-06-09T07:45:37.931Z,61.35
2018-06-09T07:46:37.664Z,61.45
2018-06-09T07:47:37.727Z,61.35
2018-06-09T07:49:37.821Z,61.07
2018-06-09T07:50:37.816Z,61.25
2018-06-09T07:51:37.834Z,61.35
2018-06-09T07:52:38.131Z,61.16
2018-06-09T07:53:37.907Z,61.35
2018-06-09T07:54:37.947Z,61.16
2018-06-09T07:55:37.985Z,61.35
2018-06-09T07:56:38.012Z,61.38
2018-06-09T07:57:38.073Z,61.29
2018-06-09T07:58:38.080Z,61.29
2018-06-09T07:59:39.262Z,61.35
2018-06-09T08:00:38.100Z,61.09
2018-06-09T08:02:38.218Z,61.29
2018-06-09T08:04:38.618Z,61.38
2018-06-09T08:05:38.326Z,61.19
2018-06-09T08:06:38.660Z,61.29
2018-06-09T08:07:38.396Z,61.48
2018-06-09T08:08:38.441Z,61.19
2018-06-09T08:09:38.669Z,61.19
2018-06-09T08:10:38.502Z,61.29
2018-06-09T08:11:38.536Z,61.48
2018-06-09T08:12:38.886Z,61.38
2018-06-09T08:13:38.902Z,61.19
2018-06-09T08:14:38.640Z,61.38
2018-06-09T08:15:38.684Z,61.29
2018-06-09T08:16:38.658Z,61.29
2018-06-09T08:19:39.076Z,61.19
2018-06-09T08:20:38.846Z,61.00
2018-06-09T08:21:38.907Z,61.09
2018-06-09T08:23:38.958Z,61.09
2018-06-09T08:24:38.947Z,61.35
2018-06-09T08:25:39.023Z,61.29
2018-06-09T08:26:39.311Z,61.25
2018-06-09T08:27:39.049Z,61.35
2018-06-09T08:28:39.134Z,61.38
2018-06-09T08:29:39.519Z,61.38
2018-06-09T08:30:39.426Z,61.25
2018-06-09T08:31:39.246Z,61.25
2018-06-09T08:32:39.524Z,61.58
2018-06-09T08:33:39.304Z,61.19
2018-06-09T08:34:39.438Z,61.29
2018-06-09T08:35:39.328Z,61.19
2018-06-09T08:36:39.914Z,61.48
2018-06-09T08:38:39.725Z,61.19
2018-06-09T08:39:39.525Z,61.09
2018-06-09T08:40:39.497Z,61.00
2018-06-09T08:41:39.532Z,61.29
2018-06-09T08:42:39.615Z,61.48
2018-06-09T08:43:39.973Z,60.71
2018-06-09T08:44:40.441Z,60.80
2018-06-09T08:46:39.760Z,61.29
2018-06-09T08:47:39.795Z,61.58
2018-06-09T08:48:39.825Z,61.09
2018-06-09T08:49:40.067Z,61.48
2018-06-09T08:50:39.903Z,61.29
2018-06-09T08:51:39.928Z,60.80
2018-06-09T08:52:40.381Z,60.93
2018-06-09T08:53:39.953Z,60.83
2018-06-09T08:54:40.311Z,60.83
2018-06-09T08:55:40.075Z,60.74
2018-06-09T08:56:40.625Z,60.64
2018-06-09T08:57:40.168Z,60.71
2018-06-09T08:58:40.381Z,60.93
2018-06-09T08:59:40.340Z,60.61
2018-06-09T09:01:40.322Z,60.93
2018-06-09T09:02:40.435Z,60.93
2018-06-09T09:03:41.421Z,60.54
2018-06-09T09:04:40.390Z,60.25
2018-06-09T09:05:40.656Z,60.64
2018-06-09T09:06:40.469Z,60.44
2018-06-09T09:07:40.901Z,60.44
2018-06-09T09:09:40.826Z,60.35
2018-06-09T09:10:41.163Z,60.35
2018-06-09T09:11:40.638Z,60.44
2018-06-09T09:12:40.674Z,60.35
2018-06-09T09:13:40.706Z,60.35
2018-06-09T09:14:40.693Z,59.57
2018-06-09T09:17:40.799Z,60.35
2018-06-09T09:18:40.883Z,60.15
2018-06-09T09:19:40.958Z,59.76
2018-06-09T09:20:40.956Z,59.86
2018-06-09T09:21:41.258Z,59.67
2018-06-09T09:23:41.262Z,60.05
2018-06-09T09:25:41.138Z,60.08
2018-06-09T09:26:41.176Z,59.86
2018-06-09T09:27:41.808Z,59.95
2018-06-09T09:29:41.479Z,59.69
2018-06-09T09:30:41.353Z,59.69
2018-06-09T09:31:41.392Z,59.47
2018-06-09T09:33:41.682Z,59.21
2018-06-09T09:34:41.453Z,59.59
2018-06-09T09:35:41.561Z,59.31
2018-06-09T09:37:41.568Z,59.50
2018-06-09T09:38:41.592Z,59.31
2018-06-09T09:39:41.942Z,59.50
2018-06-09T09:40:41.614Z,59.21
2018-06-09T09:41:41.921Z,59.21
2018-06-09T09:42:41.746Z,59.21
2018-06-09T09:43:41.742Z,59.21
2018-06-09T09:44:41.820Z,59.11
2018-06-09T09:45:42.146Z,59.31
2018-06-09T09:46:41.886Z,59.31
2018-06-09T09:47:41.871Z,59.41
2018-06-09T09:49:42.012Z,59.41
2018-06-09T09:50:41.979Z,59.21
2018-06-09T09:51:42.067Z,58.92
2018-06-09T09:52:42.593Z,59.01
2018-06-09T09:53:42.432Z,58.92
2018-06-09T09:55:42.355Z,59.01
2018-06-09T09:56:42.271Z,59.11
2018-06-09T09:57:42.226Z,59.21
2018-06-09T09:58:42.657Z,59.31
2018-06-09T09:59:42.598Z,59.21
2018-06-09T10:00:42.834Z,59.21
2018-06-09T10:01:42.360Z,59.11
2018-06-09T10:02:42.655Z,59.01
2018-06-09T10:03:42.464Z,59.31
2018-06-09T10:04:42.565Z,59.21
2018-06-09T10:05:42.528Z,58.62
2018-06-09T10:06:42.540Z,58.53
2018-06-09T10:07:42.630Z,58.62
2018-06-09T10:08:42.663Z,58.62
2018-06-09T10:09:42.651Z,58.43
2018-06-09T10:10:42.804Z,58.82
2018-06-09T10:12:43.113Z,58.43
2018-06-09T10:13:42.791Z,58.53
2018-06-09T10:14:43.082Z,58.92
2018-06-09T10:15:42.864Z,58.53
2018-06-09T10:16:42.949Z,58.53
2018-06-09T10:17:43.193Z,58.72
2018-06-09T10:19:43.303Z,58.62
2018-06-09T10:20:43.388Z,58.62
2018-06-09T10:21:43.434Z,58.82
2018-06-09T10:22:43.108Z,58.92
2018-06-09T10:24:43.259Z,58.72
2018-06-09T10:25:43.269Z,58.62
2018-06-09T10:27:43.842Z,58.53
2018-06-09T10:28:43.371Z,58.62
2018-06-09T10:29:44.118Z,58.53
2018-06-09T10:30:43.560Z,58.33
2018-06-09T10:31:43.586Z,58.33
2018-06-09T10:32:43.985Z,58.33
2018-06-09T10:33:43.569Z,58.62
2018-06-09T10:34:44.626Z,58.92
2018-06-09T10:35:43.732Z,58.72
2018-06-09T10:37:43.648Z,58.95
2018-06-09T10:38:44.331Z,58.95
2018-06-09T10:39:44.139Z,58.85
2018-06-09T10:40:43.822Z,58.85
2018-06-09T10:41:44.394Z,58.85
2018-06-09T10:42:43.827Z,58.85
2018-06-09T10:43:43.910Z,58.85
2018-06-09T10:44:44.247Z,58.95
2018-06-09T10:45:43.989Z,58.85
2018-06-09T10:46:43.989Z,58.56
2018-06-09T10:47:44.077Z,58.56
2018-06-09T10:48:44.438Z,58.65
2018-06-09T10:49:44.119Z,58.85
2018-06-09T10:50:44.500Z,58.85
2018-06-09T10:51:44.148Z,58.85
2018-06-09T10:52:44.444Z,58.56
2018-06-09T10:53:44.285Z,58.75
2018-06-09T10:54:44.604Z,58.65
2018-06-09T10:55:44.354Z,58.65
2018-06-09T10:56:44.379Z,58.75
2018-06-09T10:57:44.421Z,58.56
2018-06-09T10:58:44.414Z,58.46
2018-06-09T10:59:45.044Z,58.65
2018-06-09T11:01:44.852Z,58.46
2018-06-09T11:02:44.917Z,58.75
2018-06-09T11:03:44.833Z,58.75
2018-06-09T11:04:44.633Z,58.65
2018-06-09T11:05:44.700Z,58.56
2018-06-09T11:06:44.745Z,58.95
2018-06-09T11:07:44.767Z,58.75
2018-06-09T11:08:45.058Z,57.87
2018-06-09T11:09:44.848Z,58.07
2018-06-09T11:10:44.828Z,58.17
2018-06-09T11:11:44.928Z,58.75
2018-06-09T11:12:45.309Z,58.65
2018-06-09T11:13:44.999Z,58.65
2018-06-09T11:14:45.325Z,58.65
2018-06-09T11:15:45.312Z,58.17
2018-06-09T11:16:45.104Z,58.36
2018-06-09T11:17:45.129Z,58.26
2018-06-09T11:18:45.316Z,58.26
2018-06-09T11:19:45.204Z,58.26
2018-06-09T11:20:45.462Z,58.26
2018-06-09T11:21:45.240Z,58.26
2018-06-09T11:23:45.292Z,58.46
2018-06-09T11:24:45.331Z,58.07
2018-06-09T11:25:45.418Z,57.97
2018-06-09T11:26:45.808Z,58.17
2018-06-09T11:27:45.497Z,58.07
2018-06-09T11:28:45.824Z,58.07
2018-06-09T11:29:45.778Z,58.07
2018-06-09T11:30:45.600Z,58.26
2018-06-09T11:31:46.001Z,58.17
2018-06-09T11:32:45.976Z,58.36
2018-06-09T11:33:45.739Z,58.07
2018-06-09T11:34:45.895Z,58.46
2018-06-09T11:35:45.808Z,58.17
2018-06-09T11:36:45.858Z,58.17
2018-06-09T11:37:45.878Z,57.68
2018-06-09T11:38:46.136Z,57.78
2018-06-09T11:39:46.074Z,57.87
2018-06-09T11:40:45.955Z,57.68
2018-06-09T11:41:46.023Z,57.81
2018-06-09T11:42:45.991Z,57.81
2018-06-09T11:43:46.093Z,57.68
2018-06-09T11:45:46.385Z,57.59
2018-06-09T11:46:46.170Z,57.78
2018-06-09T11:47:46.158Z,57.87
2018-06-09T11:48:46.397Z,57.78
2018-06-09T11:49:46.240Z,57.78
2018-06-09T11:50:46.284Z,57.78
2018-06-09T11:51:46.554Z,57.78
2018-06-09T11:52:46.387Z,57.81
2018-06-09T11:53:46.429Z,57.59
2018-06-09T11:54:46.457Z,57.61
2018-06-09T11:55:46.447Z,57.87
2018-06-09T11:56:46.527Z,57.71
2018-06-09T11:57:46.872Z,58.00
2018-06-09T11:58:46.603Z,58.10
2018-06-09T11:59:46.592Z,57.71
2018-06-09T12:00:46.687Z,57.71
2018-06-09T12:01:46.716Z,57.90
2018-06-09T12:02:46.904Z,57.42
2018-06-09T12:03:47.335Z,57.51
2018-06-09T12:04:46.831Z,57.42
2018-06-09T12:05:46.874Z,57.32
2018-06-09T12:06:46.903Z,57.32
2018-06-09T12:07:47.083Z,57.42
2018-06-09T12:08:46.917Z,57.71
2018-06-09T12:09:47.268Z,57.71
2018-06-09T12:10:47.028Z,57.61
2018-06-09T12:11:47.092Z,57.51
2018-06-09T12:12:47.175Z,57.71
2018-06-09T12:13:47.297Z,57.22
2018-06-09T12:14:47.169Z,56.93
2018-06-09T12:15:47.170Z,57.51
2018-06-09T12:16:47.206Z,57.71
2018-06-09T12:17:47.522Z,57.32
2018-06-09T12:18:47.478Z,57.22
2018-06-09T12:19:47.318Z,57.51
2018-06-09T12:20:47.353Z,57.42
2018-06-09T12:21:47.897Z,57.42
2018-06-09T12:22:47.420Z,56.93
2018-06-09T12:23:47.530Z,57.51
2018-06-09T12:24:47.504Z,57.22
2018-06-09T12:25:47.530Z,57.12
2018-06-09T12:26:47.576Z,57.61
2018-06-09T12:27:47.957Z,57.12
2018-06-09T12:28:47.644Z,57.51
2018-06-09T12:30:47.749Z,56.74
2018-06-09T12:31:47.762Z,56.67
2018-06-09T12:32:47.787Z,56.57
2018-06-09T12:33:48.084Z,56.86
2018-06-09T12:34:47.857Z,56.96
2018-06-09T12:35:47.905Z,56.76
2018-06-09T12:36:47.932Z,56.86
2018-06-09T12:37:47.967Z,56.57
2018-06-09T12:38:48.014Z,56.67
2018-06-09T12:39:48.090Z,56.76
2018-06-09T12:40:48.346Z,56.67
2018-06-09T12:41:48.112Z,56.67
2018-06-09T12:42:48.173Z,56.86
2018-06-09T12:43:48.187Z,56.57
2018-06-09T12:44:48.225Z,57.06
2018-06-09T12:45:48.266Z,57.15
2018-06-09T12:46:48.295Z,57.15
2018-06-09T12:47:48.607Z,56.57
2018-06-09T12:48:48.444Z,56.76
2018-06-09T12:49:48.412Z,56.86
2018-06-09T12:50:48.443Z,56.57
2018-06-09T12:51:48.479Z,56.37
2018-06-09T12:52:48.520Z,56.47
2018-06-09T12:53:48.553Z,56.67
2018-06-09T12:54:48.913Z,56.27
2018-06-09T12:55:48.627Z,57.15
2018-06-09T12:57:48.700Z,56.86
2018-06-09T12:58:49.289Z,56.18
2018-06-09T12:59:48.830Z,56.67
2018-06-09T13:00:48.862Z,56.37
2018-06-09T13:01:49.152Z,56.37
2018-06-09T13:02:48.908Z,56.57
2018-06-09T13:03:48.969Z,56.57
2018-06-09T13:04:49.225Z,56.67
2018-06-09T13:05:49.264Z,56.09
2018-06-09T13:07:49.188Z,56.09
2018-06-09T13:08:49.405Z,56.09
2018-06-09T13:09:49.205Z,56.30
2018-06-09T13:10:49.179Z,55.50
2018-06-09T13:11:49.219Z,55.91
2018-06-09T13:12:49.281Z,56.09
2018-06-09T13:13:49.647Z,56.40
2018-06-09T13:14:49.684Z,56.21
2018-06-09T13:15:49.617Z,56.21
2018-06-09T13:16:49.655Z,56.11
2018-06-09T13:17:49.496Z,55.82
2018-06-09T13:18:49.536Z,55.43
2018-06-09T13:20:49.644Z,55.82
2018-06-09T13:21:49.845Z,55.72
2018-06-09T13:22:50.001Z,55.13
2018-06-09T13:23:49.679Z,55.23
2018-06-09T13:24:49.803Z,54.97
2018-06-09T13:25:50.070Z,55.36
2018-06-09T13:26:49.802Z,55.16
2018-06-09T13:27:49.886Z,55.16
2018-06-09T13:28:49.871Z,55.07
2018-06-09T13:29:50.472Z,54.77
2018-06-09T13:31:50.072Z,54.58
2018-06-09T13:32:50.024Z,54.77
2018-06-09T13:33:50.124Z,54.60
2018-06-09T13:34:50.148Z,53.73
2018-06-09T13:35:50.213Z,54.31
2018-06-09T13:36:51.130Z,53.63
2018-06-09T13:37:50.218Z,53.73
2018-06-09T13:39:50.361Z,53.34
2018-06-09T13:40:50.590Z,52.95
2018-06-09T13:42:50.792Z,53.36
2018-06-09T13:43:50.509Z,52.97
2018-06-09T13:44:50.554Z,52.87
2018-06-09T13:45:50.552Z,53.17
2018-06-09T13:46:50.621Z,53.07
2018-06-09T13:47:50.624Z,52.68
2018-06-09T13:48:50.709Z,52.78
2018-06-09T13:49:51.005Z,52.87
2018-06-09T13:50:51.099Z,52.97
2018-06-09T13:52:50.830Z,52.58
2018-06-09T13:53:50.871Z,52.70
2018-06-09T13:54:50.897Z,52.02
2018-06-09T13:55:50.940Z,52.02
2018-06-09T13:56:51.364Z,52.02
2018-06-09T13:57:51.119Z,51.82
2018-06-09T13:58:51.310Z,51.73
2018-06-09T13:59:51.867Z,52.22
2018-06-09T14:01:52.164Z,52.25
2018-06-09T14:02:51.304Z,51.63
2018-06-09T14:03:51.312Z,51.86
2018-06-09T14:04:51.359Z,51.95
2018-06-09T14:05:51.715Z,51.76
2018-06-09T14:06:51.657Z,51.66
2018-06-09T14:08:52.278Z,51.73
2018-06-09T14:09:52.168Z,51.27
2018-06-09T14:10:51.868Z,51.07
2018-06-09T14:11:51.651Z,51.07
2018-06-09T14:12:51.740Z,51.46
2018-06-09T14:13:51.674Z,51.46
2018-06-09T14:15:52.117Z,51.66
2018-06-09T14:16:51.849Z,51.17
2018-06-09T14:17:51.850Z,51.46
2018-06-09T14:18:51.985Z,51.37
2018-06-09T14:19:51.980Z,50.88
2018-06-09T14:20:52.724Z,50.88
2018-06-09T14:21:52.360Z,50.98
2018-06-09T14:23:52.094Z,50.88
2018-06-09T14:24:52.136Z,50.68
2018-06-09T14:25:52.176Z,51.17
2018-06-09T14:26:52.277Z,50.78
2018-06-09T14:27:52.580Z,50.88
2018-06-09T14:28:52.583Z,50.71
2018-06-09T14:29:52.614Z,50.42
2018-06-09T14:30:52.399Z,50.39
2018-06-09T14:31:52.434Z,50.61
2018-06-09T14:32:52.472Z,50.81
2018-06-09T14:33:52.809Z,50.90
2018-06-09T14:34:52.551Z,50.81
2018-06-09T14:35:52.594Z,50.71
2018-06-09T14:36:52.639Z,50.71
2018-06-09T14:37:52.784Z,50.90